createdAt,value
2018-09-11T00:02:16.092Z,3.87
2018-09-11T00:04:44.606Z,4.23
2018-09-11T00:07:13.170Z,3.97
2018-09-11T00:09:41.689Z,4.13
2018-09-11T00:12:10.322Z,4.10
2018-09-11T00:14:38.841Z,3.80
2018-09-11T00:17:07.369Z,3.80
2018-09-11T00:19:35.920Z,3.43
2018-09-11T00:22:04.456Z,3.67
2018-09-11T00:24:33.020Z,3.60
2018-09-11T00:27:01.550Z,3.80
2018-09-11T00:29:30.396Z,3.80
2018-09-11T00:31:58.935Z,3.67
2018-09-11T00:34:27.509Z,3.93
2018-09-11T00:36:56.034Z,4.03
2018-09-11T00:39:24.596Z,3.53
2018-09-11T00:41:53.130Z,3.90
2018-09-11T00:44:21.700Z,3.83
2018-09-11T00:46:50.240Z,3.87
2018-09-11T00:49:18.797Z,4.37
2018-09-11T00:51:47.357Z,4.23
2018-09-11T00:54:15.905Z,4.33
2018-09-11T00:56:44.429Z,3.50
2018-09-11T00:59:12.997Z,3.70
2018-09-11T01:01:41.527Z,3.97
2018-09-11T01:04:10.114Z,3.27
2018-09-11T01:06:38.653Z,3.87
2018-09-11T01:09:08.997Z,3.47
2018-09-11T01:11:37.557Z,3.60
2018-09-11T01:14:06.185Z,3.60
2018-09-11T01:16:34.727Z,4.60
2018-09-11T01:19:03.340Z,3.60
2018-09-11T01:21:31.868Z,3.67
2018-09-11T01:24:00.425Z,4.47
2018-09-11T01:26:28.952Z,4.73
2018-09-11T01:28:57.501Z,3.63
2018-09-11T01:31:26.004Z,3.73
2018-09-11T01:33:54.821Z,3.40
2018-09-11T01:36:23.417Z,4.00
2018-09-11T01:38:52.027Z,4.23
2018-09-11T01:41:20.551Z,3.33
2018-09-11T01:43:49.294Z,4.00
2018-09-11T01:46:17.852Z,4.17
2018-09-11T01:48:46.417Z,4.53
2018-09-11T01:51:14.946Z,4.27
2018-09-11T01:53:43.500Z,4.20
2018-09-11T01:56:12.017Z,4.10
2018-09-11T01:58:40.565Z,3.33
2018-09-11T02:01:09.077Z,3.63
2018-09-11T02:03:37.693Z,4.03
2018-09-11T02:06:06.274Z,3.73
2018-09-11T02:08:34.820Z,4.23
2018-09-11T02:11:03.390Z,4.23
2018-09-11T02:13:31.915Z,3.80
2018-09-11T02:16:00.477Z,4.37
2018-09-11T02:18:29.001Z,3.77
2018-09-11T02:20:57.573Z,4.17
2018-09-11T02:23:26.089Z,3.80
2018-09-11T02:25:54.648Z,3.60
2018-09-11T02:28:23.157Z,3.70
2018-09-11T02:30:51.813Z,3.97
2018-09-11T02:33:20.344Z,4.50
2018-09-11T02:35:48.905Z,3.93
2018-09-11T02:38:17.417Z,4.00
2018-09-11T02:40:45.966Z,3.63
2018-09-11T02:43:14.508Z,4.07
2018-09-11T02:45:43.064Z,4.67
2018-09-11T02:48:11.576Z,3.70
2018-09-11T02:50:40.132Z,3.60
2018-09-11T02:53:08.651Z,3.70
2018-09-11T02:55:37.201Z,3.60
2018-09-11T02:58:06.045Z,4.33
2018-09-11T03:00:34.601Z,4.57
2018-09-11T03:03:03.125Z,3.47
2018-09-11T03:05:32.093Z,4.27
2018-09-11T03:08:00.612Z,4.17
2018-09-11T03:10:29.165Z,4.43
2018-09-11T03:12:57.681Z,3.90
2018-09-11T03:15:26.234Z,4.43
2018-09-11T03:17:54.797Z,3.80
2018-09-11T03:20:23.345Z,4.10
2018-09-11T03:22:52.216Z,3.70
2018-09-11T03:25:20.785Z,4.80
2018-09-11T03:27:49.308Z,4.00
2018-09-11T03:30:17.858Z,4.37
2018-09-11T03:32:46.368Z,4.37
2018-09-11T03:35:14.926Z,4.13
2018-09-11T03:37:43.457Z,3.77
2018-09-11T03:40:12.010Z,4.43
2018-09-11T03:42:40.521Z,4.97
2018-09-11T03:45:09.124Z,4.30
2018-09-11T03:47:37.659Z,4.57
2018-09-11T03:50:06.264Z,4.10
2018-09-11T03:52:34.774Z,4.90
2018-09-11T03:55:03.328Z,5.27
2018-09-11T03:57:31.853Z,5.00
2018-09-11T04:00:00.453Z,4.50
2018-09-11T04:02:28.965Z,4.80
2018-09-11T04:04:57.497Z,5.13
2018-09-11T04:07:26.061Z,5.23
2018-09-11T04:09:54.585Z,4.93
2018-09-11T04:12:23.138Z,5.17
2018-09-11T04:14:51.653Z,5.27
2018-09-11T04:17:20.212Z,4.77
2018-09-11T04:19:48.745Z,5.23
2018-09-11T04:22:17.322Z,5.00
2018-09-11T04:24:45.861Z,5.43
2018-09-11T04:27:14.416Z,5.83
2018-09-11T04:29:42.945Z,5.00
2018-09-11T04:32:13.475Z,5.80
2018-09-11T04:34:42.197Z,6.00
2018-09-11T04:37:10.777Z,5.27
2018-09-11T04:39:45.717Z,4.70
2018-09-11T04:42:15.006Z,4.47
2018-09-11T04:44:43.555Z,4.97
2018-09-11T04:47:12.281Z,5.60
2018-09-11T04:49:40.833Z,6.00
2018-09-11T04:52:09.394Z,5.20
2018-09-11T04:54:37.924Z,5.17
2018-09-11T04:57:06.516Z,4.90
2018-09-11T04:59:35.184Z,5.73
2018-09-11T05:02:04.438Z,5.97
2018-09-11T05:04:32.984Z,4.90
2018-09-11T05:07:03.769Z,5.60
2018-09-11T05:09:32.334Z,5.70
2018-09-11T05:12:00.899Z,5.90
2018-09-11T05:14:29.445Z,5.13
2018-09-11T05:16:58.022Z,5.77
2018-09-11T05:19:26.580Z,5.87
2018-09-11T05:21:57.382Z,5.17
2018-09-11T05:24:25.925Z,5.57
2018-09-11T05:26:54.492Z,5.67
2018-09-11T05:29:23.038Z,6.83
2018-09-11T05:31:51.640Z,5.93
2018-09-11T05:34:20.159Z,6.83
2018-09-11T05:36:48.735Z,6.47
2018-09-11T05:39:17.307Z,6.80
2018-09-11T05:41:45.897Z,6.67
2018-09-11T05:44:14.434Z,7.13
2018-09-11T05:46:42.981Z,6.70
2018-09-11T05:49:11.563Z,6.97
2018-09-11T05:51:40.441Z,6.70
2018-09-11T05:54:09.254Z,12.20
2018-09-11T05:56:37.785Z,11.10
2018-09-11T05:59:06.502Z,7.23
2018-09-11T06:01:35.150Z,6.60
2018-09-11T06:04:03.760Z,6.20
2018-09-11T06:06:32.292Z,6.03
2018-09-11T06:09:00.857Z,6.50
2018-09-11T06:11:29.402Z,7.33
2018-09-11T06:13:57.962Z,7.23
2018-09-11T06:16:26.797Z,6.67
2018-09-11T06:18:55.320Z,7.00
2018-09-11T06:21:23.886Z,7.40
2018-09-11T06:23:52.465Z,7.30
2018-09-11T06:26:21.012Z,6.60
2018-09-11T06:28:49.596Z,7.50
2018-09-11T06:31:18.133Z,6.80
2018-09-11T06:33:46.731Z,6.57
2018-09-11T06:36:15.305Z,6.53
2018-09-11T06:38:43.939Z,7.07
2018-09-11T06:41:12.824Z,7.83
2018-09-11T06:43:41.360Z,7.03
2018-09-11T06:46:09.961Z,7.33
2018-09-11T06:48:38.540Z,7.57
2018-09-11T06:51:07.060Z,6.73
2018-09-11T06:53:35.620Z,6.47
2018-09-11T06:56:04.153Z,7.10
2018-09-11T06:58:32.700Z,7.47
2018-09-11T07:01:01.241Z,7.47
2018-09-11T07:03:29.852Z,6.97
2018-09-11T07:05:58.419Z,6.70
2018-09-11T07:08:27.032Z,7.67
2018-09-11T07:10:55.605Z,6.83
2018-09-11T07:13:24.189Z,7.57
2018-09-11T07:15:52.757Z,6.57
2018-09-11T07:18:21.750Z,7.27
2018-09-11T07:20:50.539Z,7.20
2018-09-11T07:23:19.148Z,7.10
2018-09-11T07:25:47.713Z,7.03
2018-09-11T07:28:16.310Z,7.43
2018-09-11T07:30:44.877Z,10.77
2018-09-11T07:33:13.419Z,12.03
2018-09-11T07:35:41.983Z,14.10
2018-09-11T07:38:10.540Z,16.30
2018-09-11T07:40:39.109Z,15.83
2018-09-11T07:43:07.648Z,14.67
2018-09-11T07:45:36.228Z,13.93
2018-09-11T07:48:04.789Z,13.73
2018-09-11T07:50:33.380Z,12.27
2018-09-11T07:53:02.018Z,11.03
2018-09-11T07:55:30.562Z,10.83
2018-09-11T07:57:59.108Z,11.70
2018-09-11T08:00:27.680Z,11.87
2018-09-11T08:02:56.224Z,13.07
2018-09-11T08:05:24.974Z,15.83
2018-09-11T08:07:53.520Z,15.17
2018-09-11T08:10:22.085Z,17.27
2018-09-11T08:12:50.620Z,21.40
2018-09-11T08:15:19.168Z,27.47
2018-09-11T08:17:47.696Z,29.43
2018-09-11T08:20:16.265Z,34.27
2018-09-11T08:22:44.789Z,31.00
2018-09-11T08:25:13.354Z,36.83
2018-09-11T08:27:41.881Z,40.70
2018-09-11T08:30:10.463Z,42.77
2018-09-11T08:32:39.061Z,39.33
2018-09-11T08:35:07.657Z,38.47
2018-09-11T08:37:36.230Z,34.77
2018-09-11T08:40:04.912Z,26.57
2018-09-11T08:42:33.430Z,25.83
2018-09-11T08:45:01.991Z,23.10
2018-09-11T08:47:36.568Z,21.80
2018-09-11T08:50:05.173Z,19.80
2018-09-11T08:52:33.799Z,18.87
2018-09-11T08:55:02.292Z,14.00
2018-09-11T08:57:30.824Z,13.47
2018-09-11T08:59:59.458Z,12.10
2018-09-11T09:02:27.988Z,12.80
2018-09-11T09:04:56.604Z,11.50
2018-09-11T09:07:25.147Z,10.53
2018-09-11T09:09:53.742Z,10.43
2018-09-11T09:12:22.306Z,10.23
2018-09-11T09:14:50.854Z,11.53
2018-09-11T09:17:26.617Z,12.07
2018-09-11T09:19:55.395Z,10.60
2018-09-11T09:22:23.976Z,7.63
2018-09-11T09:24:54.901Z,9.40
2018-09-11T09:27:23.489Z,5.63
2018-09-11T09:29:59.983Z,4.83
2018-09-11T09:32:28.752Z,5.50
2018-09-11T09:34:57.281Z,3.73
2018-09-11T09:37:25.893Z,4.07
2018-09-11T09:39:54.742Z,4.50
2018-09-11T09:42:23.302Z,5.40
2018-09-11T09:44:51.824Z,4.07
2018-09-11T09:47:20.365Z,3.80
2018-09-11T09:49:52.149Z,4.70
2018-09-11T09:52:20.693Z,4.37
2018-09-11T09:54:49.228Z,4.30
2018-09-11T09:57:17.781Z,4.27
2018-09-11T09:59:46.308Z,4.37
2018-09-11T10:02:20.021Z,4.80
2018-09-11T10:04:48.591Z,3.80
2018-09-11T10:07:17.173Z,4.03
2018-09-11T10:09:45.696Z,3.90
2018-09-11T10:12:14.301Z,3.13
2018-09-11T10:14:42.854Z,2.87
2018-09-11T10:17:11.879Z,3.70
2018-09-11T10:19:40.528Z,2.40
2018-09-11T10:22:09.109Z,2.40
2018-09-11T10:24:37.654Z,2.73
2018-09-11T10:27:06.258Z,2.40
2018-09-11T10:29:34.788Z,2.90
2018-09-11T10:32:03.360Z,2.43
2018-09-11T10:34:31.878Z,2.20
2018-09-11T10:37:00.425Z,2.73
2018-09-11T10:39:28.942Z,2.60
2018-09-11T10:42:04.391Z,1.90
2018-09-11T10:44:33.112Z,2.60
2018-09-11T10:47:01.705Z,2.10
2018-09-11T10:49:30.230Z,2.10
2018-09-11T10:51:58.836Z,2.20
2018-09-11T10:54:27.313Z,2.33
2018-09-11T10:56:55.834Z,2.17
2018-09-11T10:59:30.673Z,2.20
2018-09-11T11:01:59.188Z,2.80
2018-09-11T11:04:27.796Z,2.33
2018-09-11T11:06:56.313Z,2.60
2018-09-11T11:09:24.857Z,2.20
2018-09-11T11:11:53.389Z,2.43
2018-09-11T11:14:21.959Z,2.50
2018-09-11T11:16:50.475Z,2.40
2018-09-11T11:19:19.034Z,2.23
2018-09-11T11:21:47.561Z,2.10
2018-09-11T11:24:16.124Z,2.53
2018-09-11T11:26:44.644Z,2.70
2018-09-11T11:29:13.281Z,2.57
2018-09-11T11:31:41.865Z,2.47
2018-09-11T11:34:10.412Z,2.70
2018-09-11T11:36:40.803Z,2.57
2018-09-11T11:39:14.684Z,2.63
2018-09-11T11:41:43.353Z,4.20
2018-09-11T11:44:12.742Z,2.50
2018-09-11T11:46:44.364Z,2.53
2018-09-11T11:49:12.961Z,2.80
2018-09-11T11:51:41.471Z,2.73
2018-09-11T11:54:10.056Z,2.73
2018-09-11T11:56:38.576Z,2.20
2018-09-11T11:59:07.185Z,2.03
2018-09-11T12:01:36.721Z,2.40
2018-09-11T12:04:05.209Z,2.43
2018-09-11T12:06:33.739Z,2.00
2018-09-11T12:09:02.298Z,2.93
2018-09-11T12:11:30.819Z,2.90
2018-09-11T12:13:59.413Z,2.40
2018-09-11T12:16:28.265Z,2.83
2018-09-11T12:18:56.998Z,2.60
2018-09-11T12:21:26.265Z,3.47
2018-09-11T12:23:54.893Z,2.60
2018-09-11T12:26:23.569Z,2.50
2018-09-11T12:29:00.232Z,2.23
2018-09-11T12:31:34.347Z,2.43
2018-09-11T12:34:08.309Z,2.73
2018-09-11T12:36:40.027Z,3.27
2018-09-11T12:39:14.647Z,2.53
2018-09-11T12:41:52.362Z,2.40
2018-09-11T12:44:26.329Z,2.30
2018-09-11T12:47:05.716Z,2.60
2018-09-11T12:49:46.330Z,2.50
2018-09-11T12:52:22.850Z,2.60
2018-09-11T12:54:56.907Z,2.70
2018-09-11T12:57:30.041Z,2.37
2018-09-11T13:00:04.011Z,2.57
2018-09-11T13:02:35.251Z,2.63
2018-09-11T13:05:05.380Z,2.30
2018-09-11T13:07:34.188Z,2.53
2018-09-11T13:10:08.540Z,2.53
2018-09-11T13:12:41.890Z,2.50
2018-09-11T13:15:15.805Z,2.53
2018-09-11T13:17:45.888Z,2.63
2018-09-11T13:20:17.084Z,2.40
2018-09-11T13:22:49.407Z,2.67
2018-09-11T13:25:19.937Z,2.80
2018-09-11T13:27:48.457Z,2.60
2018-09-11T13:30:21.805Z,2.70
2018-09-11T13:32:55.583Z,2.70
2018-09-11T13:35:29.994Z,2.53
2018-09-11T13:38:04.072Z,2.70
2018-09-11T13:40:37.908Z,2.50
2018-09-11T13:43:12.359Z,2.60
2018-09-11T13:45:50.421Z,2.00
2018-09-11T13:48:18.993Z,2.73
2018-09-11T13:50:52.014Z,2.70
2018-09-11T13:53:28.586Z,2.73
2018-09-11T13:56:02.124Z,3.00
2018-09-11T13:58:32.760Z,2.70
2018-09-11T14:01:04.749Z,2.47
2018-09-11T14:03:37.618Z,2.73
2018-09-11T14:06:13.207Z,3.07
2018-09-11T14:08:43.484Z,2.50
2018-09-11T14:11:12.184Z,2.60
2018-09-11T14:13:45.981Z,2.53
2018-09-11T14:16:18.766Z,2.40
2018-09-11T14:18:50.341Z,2.60
2018-09-11T14:21:22.734Z,2.70
2018-09-11T14:23:52.477Z,2.53
2018-09-11T14:26:25.776Z,2.60
2018-09-11T14:28:56.496Z,3.00
2018-09-11T14:31:25.101Z,3.07
2018-09-11T14:33:53.778Z,2.70
2018-09-11T14:36:22.325Z,2.93
2018-09-11T14:38:50.846Z,2.90
2018-09-11T14:41:20.761Z,2.80
2018-09-11T14:43:49.281Z,2.90
2018-09-11T14:46:17.839Z,2.60
2018-09-11T14:48:46.417Z,2.63
2018-09-11T14:51:14.976Z,3.10
2018-09-11T14:53:43.941Z,2.43
2018-09-11T14:56:12.517Z,3.23
2018-09-11T14:58:41.033Z,2.53
2018-09-11T15:01:09.558Z,2.80
2018-09-11T15:03:38.109Z,2.93
2018-09-11T15:06:06.749Z,2.80
2018-09-11T15:08:35.300Z,2.90
2018-09-11T15:11:03.829Z,3.37
2018-09-11T15:13:32.381Z,3.40
2018-09-11T15:16:03.853Z,3.10
2018-09-11T15:18:32.403Z,2.80
2018-09-11T15:21:00.943Z,3.37
2018-09-11T15:23:29.499Z,3.50
2018-09-11T15:25:58.033Z,3.13
2018-09-11T15:28:26.580Z,3.00
2018-09-11T15:30:55.101Z,3.57
2018-09-11T15:33:23.655Z,2.77
2018-09-11T15:35:52.493Z,3.17
2018-09-11T15:38:21.022Z,3.10
2018-09-11T15:40:49.540Z,2.80
2018-09-11T15:43:18.093Z,3.00
2018-09-11T15:45:46.628Z,3.27
2018-09-11T15:48:15.168Z,3.17
2018-09-11T15:50:43.684Z,3.17
2018-09-11T15:53:12.225Z,3.00
2018-09-11T15:55:40.754Z,3.00
2018-09-11T15:58:09.885Z,3.03
2018-09-11T16:00:38.416Z,3.00
2018-09-11T16:03:06.982Z,3.00
2018-09-11T16:05:35.500Z,3.23
2018-09-11T16:08:04.065Z,3.00
2018-09-11T16:10:32.583Z,3.70
2018-09-11T16:13:01.135Z,3.40
2018-09-11T16:15:29.776Z,3.43
2018-09-11T16:17:58.331Z,3.60
2018-09-11T16:20:28.216Z,4.07
2018-09-11T16:22:56.793Z,5.23
2018-09-11T16:25:25.321Z,6.30
2018-09-11T16:27:53.885Z,8.30
2018-09-11T16:30:27.919Z,9.40
2018-09-11T16:33:00.663Z,11.80
2018-09-11T16:35:34.580Z,16.97
2018-09-11T16:38:07.681Z,18.57
2018-09-11T16:40:41.013Z,22.47
2018-09-11T16:43:14.626Z,26.17
2018-09-11T16:45:44.211Z,999.90
2018-09-11T16:48:19.344Z,999.90
2018-09-11T16:51:01.603Z,999.90
2018-09-11T16:53:45.344Z,999.90
2018-09-11T16:56:21.915Z,999.90
2018-09-11T16:59:00.038Z,999.90
2018-09-11T17:01:38.004Z,999.90
2018-09-11T17:04:18.912Z,999.90
2018-09-11T17:06:54.905Z,27.13
2018-09-11T17:09:30.865Z,24.50
2018-09-11T17:12:04.219Z,23.47
2018-09-11T17:14:33.167Z,18.67
2018-09-11T17:17:02.481Z,16.77
2018-09-11T17:19:35.262Z,13.73
2018-09-11T17:22:08.482Z,7.37
2018-09-11T17:24:40.693Z,4.80
2018-09-11T17:27:12.766Z,3.63
2018-09-11T17:29:46.552Z,2.90
2018-09-11T17:32:19.898Z,2.57
2018-09-11T17:34:57.329Z,3.40
2018-09-11T17:37:29.488Z,3.03
2018-09-11T17:40:00.069Z,3.43
2018-09-11T17:42:31.208Z,3.27
2018-09-11T17:45:03.861Z,3.10
2018-09-11T17:47:37.721Z,2.83
2018-09-11T17:50:07.224Z,2.93
2018-09-11T17:52:38.857Z,3.03
2018-09-11T17:55:15.270Z,2.80
2018-09-11T17:57:44.386Z,3.00
2018-09-11T18:00:18.787Z,3.03
2018-09-11T18:02:50.292Z,3.17
2018-09-11T18:05:21.350Z,3.07
2018-09-11T18:07:49.885Z,3.63
2018-09-11T18:10:18.441Z,3.50
2018-09-11T18:12:46.952Z,3.30
2018-09-11T18:15:15.500Z,4.17
2018-09-11T18:17:44.964Z,4.43
2018-09-11T18:20:13.560Z,3.87
2018-09-11T18:22:48.841Z,4.77
2018-09-11T18:25:21.611Z,4.43
2018-09-11T18:27:51.861Z,5.30
2018-09-11T18:30:20.564Z,3.77
2018-09-11T18:32:49.157Z,5.17
2018-09-11T18:35:17.661Z,4.90
2018-09-11T18:37:46.284Z,4.20
2018-09-11T18:40:15.384Z,4.17
2018-09-11T18:42:43.917Z,3.93
2018-09-11T18:45:12.438Z,3.77
2018-09-11T18:47:41.008Z,3.43
2018-09-11T18:50:09.848Z,3.83
2018-09-11T18:52:41.466Z,3.27
2018-09-11T18:55:18.423Z,3.63
2018-09-11T18:57:47.263Z,3.67
2018-09-11T19:00:16.192Z,3.80
2018-09-11T19:02:44.901Z,4.00
2018-09-11T19:05:14.747Z,3.80
2018-09-11T19:07:48.870Z,3.50
2018-09-11T19:10:19.588Z,3.90
2018-09-11T19:12:49.518Z,3.40
2018-09-11T19:15:18.172Z,3.83
2018-09-11T19:17:46.717Z,3.53
2018-09-11T19:20:15.269Z,4.40
2018-09-11T19:22:43.942Z,3.60
2018-09-11T19:25:12.469Z,3.30
2018-09-11T19:27:41.009Z,4.03
2018-09-11T19:30:10.870Z,3.80
2018-09-11T19:32:39.550Z,3.90
2018-09-11T19:35:12.839Z,3.50
2018-09-11T19:37:42.549Z,3.57
2018-09-11T19:40:11.227Z,3.63
2018-09-11T19:42:40.918Z,3.73
2018-09-11T19:45:09.599Z,4.30
2018-09-11T19:47:41.284Z,4.10
2018-09-11T19:50:15.191Z,3.73
2018-09-11T19:52:46.996Z,4.03
2018-09-11T19:55:15.637Z,3.77
2018-09-11T19:57:44.736Z,4.57
2018-09-11T20:00:13.298Z,4.57
2018-09-11T20:02:41.857Z,4.20
2018-09-11T20:05:10.400Z,3.83
2018-09-11T20:07:39.012Z,4.30
2018-09-11T20:10:07.922Z,4.50
2018-09-11T20:12:36.460Z,4.57
2018-09-11T20:15:05.289Z,4.13
2018-09-11T20:17:33.911Z,4.00
2018-09-11T20:20:02.450Z,3.90
2018-09-11T20:22:30.993Z,3.77
2018-09-11T20:24:59.519Z,4.00
2018-09-11T20:27:28.107Z,3.73
2018-09-11T20:29:56.709Z,4.20
2018-09-11T20:32:25.343Z,3.57
2018-09-11T20:34:54.735Z,4.40
2018-09-11T20:37:23.409Z,4.60
2018-09-11T20:39:51.948Z,4.00
2018-09-11T20:42:20.463Z,4.07
2018-09-11T20:44:55.882Z,4.37
2018-09-11T20:47:24.585Z,3.60
2018-09-11T20:49:53.354Z,4.07
2018-09-11T20:52:27.371Z,3.47
2018-09-11T20:54:56.437Z,3.50
2018-09-11T20:57:27.713Z,4.03
2018-09-11T20:59:56.292Z,4.30
2018-09-11T21:02:26.852Z,4.30
2018-09-11T21:04:56.724Z,3.93
2018-09-11T21:07:36.604Z,3.87
2018-09-11T21:10:05.310Z,3.50
2018-09-11T21:12:34.737Z,4.33
2018-09-11T21:15:05.612Z,4.03
2018-09-11T21:17:38.383Z,3.70
2018-09-11T21:20:09.282Z,3.60
2018-09-11T21:22:38.699Z,4.40
2018-09-11T21:25:09.517Z,3.80
2018-09-11T21:27:39.332Z,3.70
2018-09-11T21:30:12.077Z,4.60
2018-09-11T21:32:43.745Z,4.17
2018-09-11T21:35:12.369Z,3.70
2018-09-11T21:37:40.933Z,3.67
2018-09-11T21:40:09.560Z,4.27
2018-09-11T21:42:39.854Z,3.70
2018-09-11T21:45:09.859Z,4.30
2018-09-11T21:47:41.176Z,3.77
2018-09-11T21:50:12.049Z,4.07
2018-09-11T21:52:44.726Z,4.37
2018-09-11T21:55:14.977Z,4.37
2018-09-11T21:57:53.322Z,4.20
2018-09-11T22:00:25.331Z,4.50
2018-09-11T22:02:57.837Z,4.17
2018-09-11T22:05:27.573Z,4.00
2018-09-11T22:07:57.719Z,4.30
2018-09-11T22:10:28.191Z,4.50
2018-09-11T22:12:58.409Z,4.37
2018-09-11T22:15:27.889Z,4.37
2018-09-11T22:17:59.950Z,4.73
2018-09-11T22:20:31.456Z,4.33
2018-09-11T22:23:04.262Z,4.70
2018-09-11T22:25:34.475Z,4.20
2018-09-11T22:28:09.447Z,3.83
2018-09-11T22:30:40.810Z,4.30
2018-09-11T22:33:12.504Z,4.10
2018-09-11T22:35:46.291Z,4.33
2018-09-11T22:38:15.360Z,4.13
2018-09-11T22:40:47.340Z,4.03
2018-09-11T22:43:18.686Z,4.07
2018-09-11T22:45:52.371Z,4.43
2018-09-11T22:48:24.841Z,3.80
2018-09-11T22:50:57.264Z,3.90
2018-09-11T22:53:26.920Z,4.50
2018-09-11T22:55:59.937Z,3.80
2018-09-11T22:58:30.257Z,4.47
2018-09-11T23:01:03.718Z,4.30
2018-09-11T23:03:34.088Z,3.97
2018-09-11T23:06:06.603Z,3.77
2018-09-11T23:08:40.476Z,4.07
2018-09-11T23:11:10.336Z,3.90
2018-09-11T23:13:39.908Z,4.07
2018-09-11T23:16:09.980Z,4.07
2018-09-11T23:18:40.260Z,3.87
2018-09-11T23:21:09.523Z,4.27
2018-09-11T23:23:38.473Z,4.37
2018-09-11T23:26:07.028Z,4.20
2018-09-11T23:28:35.541Z,3.73
2018-09-11T23:31:04.808Z,4.43
2018-09-11T23:33:33.330Z,4.77
2018-09-11T23:36:01.874Z,4.53
2018-09-11T23:38:30.392Z,3.77
2018-09-11T23:40:59.010Z,3.80
2018-09-11T23:43:27.532Z,4.47
2018-09-11T23:45:56.111Z,4.63
2018-09-11T23:48:24.634Z,4.70
2018-09-11T23:50:53.208Z,4.20
2018-09-11T23:53:21.734Z,4.93
2018-09-11T23:55:50.313Z,4.60
2018-09-11T23:58:18.828Z,4.83
